Webcam more information Webcam


altri nostri siti meteo:

RISCHIO INCENDIRischio incendi

Pomeziameteo 1Sito sul meteo

Pomeziameteo DashboardSito sul meteo

Caput FrigorisSito sul meteo

BarcellonameteoSito sul meteo

MeteoipassiSito sul meteo

TortoretometeolidoSito sul meteo

CastelnuovovomanometeoSito sul meteo

MeteogonzagaSito sul meteo

MeteonetworkInvio dai a Meteonetwork



Vento Da: 17-06-2019 12:00 Fino a: 17:59 Avvertimento per: Vento Livello: Giallo info button

Report METAR

   
LIRV - Viterbo (it-Mil), Italy
Distanza dalla stazione: W 4 km
Dati ricevuti: 17-06-2019 06:55
DATI Obsoleti
Sereno  
Sereno  
   Vento: Variabile calma
Vento: Variabile calma
Temperatura: 17°C
P.to Rugiada: 16°C
Umidita: 94%
Barometro: 1014 hPa
Visibilita: oltre 10 km
dettagli cloud: Sereno
LIRV 170455Z /////KT CAVOK 17/16 Q1014
LIQN - Rieti, Italy
Distanza dalla stazione: E 59 km
Dati ricevuti: 16-06-2019 19:50
DATI Obsoleti
Sereno  
Sereno  
   Vento: Sud 9.3 km/h
Vento: Sud 9.3 km/h
Temperatura: 26°C
P.to Rugiada: 11°C
Umidita: 39%
Barometro: 1014 hPa
Visibilita: oltre 10 km
dettagli cloud: Sereno
LIQN 161750Z 17005KT CAVOK 26/11 Q1014
LIRU - Rome/Urbe (it-Af, Italy
Distanza dalla stazione: S 61 km
Dati ricevuti: 17-06-2019 08:00
Sereno  
Sereno  
   Vento: Nord 7.4 km/h
Vento: Nord 7.4 km/h
Temperatura: 20°C
P.to Rugiada: 18°C
Umidita: 88%
Barometro: 1014 hPa
Visibilita: oltre 10 km
dettagli cloud: Sereno
LIRU 170600Z 36004KT CAVOK 20/18 Q1014
LIRG - Guidonia (it-Afb, Italy
Distanza dalla stazione: SE 68 km
Dati ricevuti: 17-06-2019 07:55
Sereno  
Sereno  
   Vento: Variabile 3.7 km/h
Vento: Variabile 3.7 km/h
Temperatura: 19°C
P.to Rugiada: 17°C
Umidita: 88%
Barometro: 1015 hPa
Visibilita: oltre 10 km
dettagli cloud: Sereno
LIRG 170555Z VRB02KT CAVOK 19/17 Q1015
LIRK - Terminillo Mount, Italy
Distanza dalla stazione: E 70 km
Dati ricevuti: 17-06-2019 07:55
  
  
   Vento: Variabile 18.5 km/h
Vento: Variabile 18.5 km/h
Temperatura: 12°C
P.to Rugiada: 10°C
Umidita: 88%
Barometro: 1022 hPa
LIRK 170555Z AUTO VRB10KT //// 12/10 Q1022
 

Script sviluppato da  Saratoga-weather.org Adattato per il modello da  Weerstation Leuven

Strumentazione usata:

Stazione meteo
Davis VP2

Programma gestore dati meteo
WVIEW

Server per i dati meteo
WDS-5

Davis VP2

WVIEW

WDS-5